sensor_id;sensor_type;location;lat;lon;timestamp;temperature;humidity
490;DHT22;231;48.120;11.576;2024-03-29T00:01:49;4.20;47.60
490;DHT22;231;48.120;11.576;2024-03-29T00:04:15;4.20;46.70
490;DHT22;231;48.120;11.576;2024-03-29T00:06:42;4.20;46.40
490;DHT22;231;48.120;11.576;2024-03-29T00:09:08;4.30;45.70
490;DHT22;231;48.120;11.576;2024-03-29T00:11:34;4.30;45.20
490;DHT22;231;48.120;11.576;2024-03-29T00:14:00;4.30;45.30
490;DHT22;231;48.120;11.576;2024-03-29T00:16:26;4.30;46.20
490;DHT22;231;48.120;11.576;2024-03-29T00:18:52;4.20;46.70
490;DHT22;231;48.120;11.576;2024-03-29T00:21:17;4.20;46.80
490;DHT22;231;48.120;11.576;2024-03-29T00:23:45;4.20;46.60
490;DHT22;231;48.120;11.576;2024-03-29T00:26:11;4.10;48.10
490;DHT22;231;48.120;11.576;2024-03-29T00:28:37;4.00;48.70
490;DHT22;231;48.120;11.576;2024-03-29T00:31:03;3.90;49.20
490;DHT22;231;48.120;11.576;2024-03-29T00:33:29;3.90;51.60
490;DHT22;231;48.120;11.576;2024-03-29T00:35:55;3.90;52.40
490;DHT22;231;48.120;11.576;2024-03-29T00:38:21;3.80;53.20
490;DHT22;231;48.120;11.576;2024-03-29T00:40:48;3.80;54.60
490;DHT22;231;48.120;11.576;2024-03-29T00:43:14;3.70;55.00
490;DHT22;231;48.120;11.576;2024-03-29T00:45:40;3.70;55.00
490;DHT22;231;48.120;11.576;2024-03-29T00:48:06;3.60;56.10
490;DHT22;231;48.120;11.576;2024-03-29T00:50:32;3.60;56.40
490;DHT22;231;48.120;11.576;2024-03-29T00:52:58;3.50;58.80
490;DHT22;231;48.120;11.576;2024-03-29T00:55:25;3.50;59.90
490;DHT22;231;48.120;11.576;2024-03-29T00:57:52;3.40;61.00
490;DHT22;231;48.120;11.576;2024-03-29T01:00:40;3.40;60.70
490;DHT22;231;48.120;11.576;2024-03-29T01:03:28;3.20;61.60
490;DHT22;231;48.120;11.576;2024-03-29T01:06:11;3.20;62.60
490;DHT22;231;48.120;11.576;2024-03-29T01:08:59;3.10;64.80
490;DHT22;231;48.120;11.576;2024-03-29T01:11:35;3.10;69.60
490;DHT22;231;48.120;11.576;2024-03-29T01:20:10;3.00;72.50
490;DHT22;231;48.120;11.576;2024-03-29T01:22:35;3.00;74.00
490;DHT22;231;48.120;11.576;2024-03-29T01:25:01;3.00;73.50
490;DHT22;231;48.120;11.576;2024-03-29T01:27:27;3.00;75.90
490;DHT22;231;48.120;11.576;2024-03-29T01:29:53;3.00;75.90
490;DHT22;231;48.120;11.576;2024-03-29T01:32:19;3.00;78.60
490;DHT22;231;48.120;11.576;2024-03-29T01:34:45;3.00;78.00
490;DHT22;231;48.120;11.576;2024-03-29T01:37:12;3.00;76.50
490;DHT22;231;48.120;11.576;2024-03-29T01:39:38;3.00;76.60
490;DHT22;231;48.120;11.576;2024-03-29T01:42:04;3.00;76.30
490;DHT22;231;48.120;11.576;2024-03-29T01:44:30;3.00;76.00
490;DHT22;231;48.120;11.576;2024-03-29T01:46:57;3.00;74.60
490;DHT22;231;48.120;11.576;2024-03-29T01:49:24;3.00;75.80
490;DHT22;231;48.120;11.576;2024-03-29T01:51:51;3.00;75.70
490;DHT22;231;48.120;11.576;2024-03-29T01:54:20;3.00;74.60
490;DHT22;231;48.120;11.576;2024-03-29T01:56:47;3.00;73.40
490;DHT22;231;48.120;11.576;2024-03-29T01:59:16;3.00;73.30
490;DHT22;231;48.120;11.576;2024-03-29T02:01:45;3.00;71.60
490;DHT22;231;48.120;11.576;2024-03-29T02:04:12;3.00;70.20
490;DHT22;231;48.120;11.576;2024-03-29T02:06:39;3.00;70.00
490;DHT22;231;48.120;11.576;2024-03-29T02:09:06;3.00;69.50
490;DHT22;231;48.120;11.576;2024-03-29T02:11:34;3.00;68.10
490;DHT22;231;48.120;11.576;2024-03-29T02:14:01;3.00;67.60
490;DHT22;231;48.120;11.576;2024-03-29T02:16:28;3.00;68.10
490;DHT22;231;48.120;11.576;2024-03-29T02:18:55;2.90;67.10
490;DHT22;231;48.120;11.576;2024-03-29T02:21:21;3.00;69.20
490;DHT22;231;48.120;11.576;2024-03-29T02:23:58;3.00;68.40
490;DHT22;231;48.120;11.576;2024-03-29T02:26:25;3.10;67.40
490;DHT22;231;48.120;11.576;2024-03-29T02:28:57;3.10;66.50
490;DHT22;231;48.120;11.576;2024-03-29T02:31:24;3.10;64.60
490;DHT22;231;48.120;11.576;2024-03-29T02:33:50;3.20;64.20
490;DHT22;231;48.120;11.576;2024-03-29T02:36:17;3.20;63.60
490;DHT22;231;48.120;11.576;2024-03-29T02:38:44;3.20;62.90
490;DHT22;231;48.120;11.576;2024-03-29T02:41:12;3.20;62.60
490;DHT22;231;48.120;11.576;2024-03-29T02:43:39;3.10;63.90
490;DHT22;231;48.120;11.576;2024-03-29T02:46:06;3.10;63.60
490;DHT22;231;48.120;11.576;2024-03-29T02:48:33;3.10;65.30
490;DHT22;231;48.120;11.576;2024-03-29T02:50:58;3.10;65.70
490;DHT22;231;48.120;11.576;2024-03-29T02:53:25;3.00;64.60
490;DHT22;231;48.120;11.576;2024-03-29T02:55:51;3.10;65.20
490;DHT22;231;48.120;11.576;2024-03-29T02:58:19;3.10;65.20
490;DHT22;231;48.120;11.576;2024-03-29T03:00:45;3.10;64.80
490;DHT22;231;48.120;11.576;2024-03-29T03:03:15;3.10;65.20
490;DHT22;231;48.120;11.576;2024-03-29T03:05:41;3.00;65.50
490;DHT22;231;48.120;11.576;2024-03-29T03:08:08;3.10;65.20
490;DHT22;231;48.120;11.576;2024-03-29T03:10:52;3.00;65.10
490;DHT22;231;48.120;11.576;2024-03-29T03:13:29;3.00;64.60
490;DHT22;231;48.120;11.576;2024-03-29T03:15:56;3.00;65.00
490;DHT22;231;48.120;11.576;2024-03-29T03:18:23;2.90;64.80
490;DHT22;231;48.120;11.576;2024-03-29T03:20:53;2.90;65.10
490;DHT22;231;48.120;11.576;2024-03-29T03:23:20;2.90;66.20
490;DHT22;231;48.120;11.576;2024-03-29T03:25:53;2.80;68.30
490;DHT22;231;48.120;11.576;2024-03-29T03:28:19;2.80;70.30
490;DHT22;231;48.120;11.576;2024-03-29T03:30:47;2.80;70.20
490;DHT22;231;48.120;11.576;2024-03-29T03:33:14;2.70;70.40
490;DHT22;231;48.120;11.576;2024-03-29T03:35:41;2.70;71.90
490;DHT22;231;48.120;11.576;2024-03-29T03:38:08;2.60;74.20
490;DHT22;231;48.120;11.576;2024-03-29T03:40:34;2.70;75.80
490;DHT22;231;48.120;11.576;2024-03-29T03:43:02;2.70;75.80
490;DHT22;231;48.120;11.576;2024-03-29T03:45:28;2.60;76.40
490;DHT22;231;48.120;11.576;2024-03-29T03:47:56;2.70;76.40
490;DHT22;231;48.120;11.576;2024-03-29T03:50:22;2.60;76.40
490;DHT22;231;48.120;11.576;2024-03-29T03:52:49;2.60;76.70
490;DHT22;231;48.120;11.576;2024-03-29T03:55:15;2.70;77.60
490;DHT22;231;48.120;11.576;2024-03-29T03:57:42;2.70;76.50
490;DHT22;231;48.120;11.576;2024-03-29T04:00:09;2.70;75.60
490;DHT22;231;48.120;11.576;2024-03-29T04:02:36;2.70;75.60
490;DHT22;231;48.120;11.576;2024-03-29T04:05:03;2.70;76.20
490;DHT22;231;48.120;11.576;2024-03-29T04:07:30;2.80;76.50
490;DHT22;231;48.120;11.576;2024-03-29T04:09:56;2.80;74.30
490;DHT22;231;48.120;11.576;2024-03-29T04:12:23;2.80;73.10
490;DHT22;231;48.120;11.576;2024-03-29T04:14:49;2.80;71.90
490;DHT22;231;48.120;11.576;2024-03-29T04:17:16;2.80;73.40
490;DHT22;231;48.120;11.576;2024-03-29T04:19:41;2.80;71.90
490;DHT22;231;48.120;11.576;2024-03-29T04:22:10;2.70;72.70
490;DHT22;231;48.120;11.576;2024-03-29T04:24:35;2.80;74.30
490;DHT22;231;48.120;11.576;2024-03-29T04:27:02;2.80;74.40
490;DHT22;231;48.120;11.576;2024-03-29T04:29:29;2.80;73.30
490;DHT22;231;48.120;11.576;2024-03-29T04:31:56;2.80;72.80
490;DHT22;231;48.120;11.576;2024-03-29T04:34:22;2.80;73.00
490;DHT22;231;48.120;11.576;2024-03-29T04:36:49;2.80;73.60
490;DHT22;231;48.120;11.576;2024-03-29T04:39:17;2.80;73.10
490;DHT22;231;48.120;11.576;2024-03-29T04:41:44;2.80;73.10
490;DHT22;231;48.120;11.576;2024-03-29T04:44:13;2.80;73.80
490;DHT22;231;48.120;11.576;2024-03-29T04:46:39;2.80;73.90
490;DHT22;231;48.120;11.576;2024-03-29T04:49:06;2.90;74.10
490;DHT22;231;48.120;11.576;2024-03-29T04:51:33;2.80;73.50
490;DHT22;231;48.120;11.576;2024-03-29T04:54:00;2.80;75.00
490;DHT22;231;48.120;11.576;2024-03-29T04:56:28;2.80;75.30
490;DHT22;231;48.120;11.576;2024-03-29T04:58:55;2.80;77.70
490;DHT22;231;48.120;11.576;2024-03-29T05:01:21;2.80;77.80
490;DHT22;231;48.120;11.576;2024-03-29T05:03:48;2.80;77.30
490;DHT22;231;48.120;11.576;2024-03-29T05:06:16;2.90;76.90
490;DHT22;231;48.120;11.576;2024-03-29T05:08:43;2.90;76.90
490;DHT22;231;48.120;11.576;2024-03-29T05:11:10;3.00;76.30
490;DHT22;231;48.120;11.576;2024-03-29T05:13:41;3.00;74.30
490;DHT22;231;48.120;11.576;2024-03-29T05:16:07;3.10;73.00
490;DHT22;231;48.120;11.576;2024-03-29T05:18:34;3.20;70.90
490;DHT22;231;48.120;11.576;2024-03-29T05:21:01;3.30;69.20
490;DHT22;231;48.120;11.576;2024-03-29T05:23:28;3.40;67.30
490;DHT22;231;48.120;11.576;2024-03-29T05:25:55;3.40;64.90
490;DHT22;231;48.120;11.576;2024-03-29T05:28:22;3.60;61.00
490;DHT22;231;48.120;11.576;2024-03-29T05:30:50;3.70;57.90
490;DHT22;231;48.120;11.576;2024-03-29T05:33:17;3.80;55.70
490;DHT22;231;48.120;11.576;2024-03-29T05:35:44;4.00;51.40
490;DHT22;231;48.120;11.576;2024-03-29T05:38:11;4.10;49.40
490;DHT22;231;48.120;11.576;2024-03-29T05:40:38;4.20;46.30
490;DHT22;231;48.120;11.576;2024-03-29T05:43:05;4.40;42.10
490;DHT22;231;48.120;11.576;2024-03-29T05:45:32;4.70;39.60
490;DHT22;231;48.120;11.576;2024-03-29T05:48:00;4.80;38.50
490;DHT22;231;48.120;11.576;2024-03-29T05:50:27;5.00;35.30
490;DHT22;231;48.120;11.576;2024-03-29T05:52:54;5.10;34.10
490;DHT22;231;48.120;11.576;2024-03-29T05:55:22;5.20;33.50
490;DHT22;231;48.120;11.576;2024-03-29T05:57:49;5.30;32.30
490;DHT22;231;48.120;11.576;2024-03-29T06:00:16;5.40;31.40
490;DHT22;231;48.120;11.576;2024-03-29T06:02:43;5.50;31.70
490;DHT22;231;48.120;11.576;2024-03-29T06:05:12;5.60;30.30
490;DHT22;231;48.120;11.576;2024-03-29T06:07:39;5.70;29.70
490;DHT22;231;48.120;11.576;2024-03-29T06:10:06;5.70;29.30
490;DHT22;231;48.120;11.576;2024-03-29T06:12:35;5.80;28.70
490;DHT22;231;48.120;11.576;2024-03-29T06:15:04;5.70;28.60
490;DHT22;231;48.120;11.576;2024-03-29T06:17:49;5.70;29.00
490;DHT22;231;48.120;11.576;2024-03-29T06:20:17;5.60;29.20
490;DHT22;231;48.120;11.576;2024-03-29T06:22:44;5.60;29.90
490;DHT22;231;48.120;11.576;2024-03-29T06:25:11;5.70;30.00
490;DHT22;231;48.120;11.576;2024-03-29T06:27:38;5.80;30.60
490;DHT22;231;48.120;11.576;2024-03-29T06:30:06;6.00;28.50
490;DHT22;231;48.120;11.576;2024-03-29T06:32:34;6.20;28.40
490;DHT22;231;48.120;11.576;2024-03-29T06:35:02;6.50;27.90
490;DHT22;231;48.120;11.576;2024-03-29T06:37:30;6.80;24.90
490;DHT22;231;48.120;11.576;2024-03-29T06:39:57;7.10;22.90
490;DHT22;231;48.120;11.576;2024-03-29T06:42:24;7.30;20.80
490;DHT22;231;48.120;11.576;2024-03-29T06:44:51;7.40;18.60
490;DHT22;231;48.120;11.576;2024-03-29T06:47:20;7.50;18.50
490;DHT22;231;48.120;11.576;2024-03-29T06:49:47;7.70;18.00
490;DHT22;231;48.120;11.576;2024-03-29T06:52:14;7.90;16.40
490;DHT22;231;48.120;11.576;2024-03-29T06:54:42;8.10;15.50
490;DHT22;231;48.120;11.576;2024-03-29T06:57:09;8.30;14.60
490;DHT22;231;48.120;11.576;2024-03-29T06:59:40;8.50;13.30
490;DHT22;231;48.120;11.576;2024-03-29T07:02:07;8.60;12.30
490;DHT22;231;48.120;11.576;2024-03-29T07:04:35;8.60;11.90
490;DHT22;231;48.120;11.576;2024-03-29T07:07:02;8.70;12.10
490;DHT22;231;48.120;11.576;2024-03-29T07:09:29;8.80;11.00
490;DHT22;231;48.120;11.576;2024-03-29T07:11:57;8.90;11.30
490;DHT22;231;48.120;11.576;2024-03-29T07:14:24;9.00;11.40
490;DHT22;231;48.120;11.576;2024-03-29T07:16:52;9.30;11.40
490;DHT22;231;48.120;11.576;2024-03-29T07:19:19;10.50;10.70
490;DHT22;231;48.120;11.576;2024-03-29T08:45:50;33.50;1.00
490;DHT22;231;48.120;11.576;2024-03-29T08:48:29;33.00;1.00
490;DHT22;231;48.120;11.576;2024-03-29T08:51:10;32.70;1.00
490;DHT22;231;48.120;11.576;2024-03-29T08:53:56;33.00;1.00
490;DHT22;231;48.120;11.576;2024-03-29T08:59:27;32.50;1.00
490;DHT22;231;48.120;11.576;2024-03-29T09:02:17;31.50;1.00
490;DHT22;231;48.120;11.576;2024-03-29T09:05:13;30.40;1.00
490;DHT22;231;48.120;11.576;2024-03-29T09:08:08;29.70;1.00
490;DHT22;231;48.120;11.576;2024-03-29T09:11:03;29.40;1.00
490;DHT22;231;48.120;11.576;2024-03-29T09:13:44;29.00;1.00
490;DHT22;231;48.120;11.576;2024-03-29T09:16:29;29.00;1.00
490;DHT22;231;48.120;11.576;2024-03-29T09:19:09;29.30;1.00
490;DHT22;231;48.120;11.576;2024-03-29T10:04:07;27.10;1.00
490;DHT22;231;48.120;11.576;2024-03-29T10:06:39;26.40;1.00
490;DHT22;231;48.120;11.576;2024-03-29T10:12:41;25.20;1.00
490;DHT22;231;48.120;11.576;2024-03-29T11:54:28;26.00;1.00
490;DHT22;231;48.120;11.576;2024-03-29T11:56:56;26.20;1.00
490;DHT22;231;48.120;11.576;2024-03-29T11:59:26;26.10;1.00
490;DHT22;231;48.120;11.576;2024-03-29T12:01:55;25.90;1.00
490;DHT22;231;48.120;11.576;2024-03-29T12:04:32;25.90;1.00
490;DHT22;231;48.120;11.576;2024-03-29T12:06:59;26.00;1.00
490;DHT22;231;48.120;11.576;2024-03-29T12:09:25;26.00;1.00
490;DHT22;231;48.120;11.576;2024-03-29T12:11:54;26.20;1.00
490;DHT22;231;48.120;11.576;2024-03-29T12:14:25;26.70;1.00
490;DHT22;231;48.120;11.576;2024-03-29T12:16:53;27.40;1.00
490;DHT22;231;48.120;11.576;2024-03-29T12:19:24;28.10;1.00
490;DHT22;231;48.120;11.576;2024-03-29T12:21:53;29.40;1.00
490;DHT22;231;48.120;11.576;2024-03-29T12:24:39;30.80;1.00
490;DHT22;231;48.120;11.576;2024-03-29T12:27:13;31.50;1.00
490;DHT22;231;48.120;11.576;2024-03-29T12:29:43;31.90;1.00
490;DHT22;231;48.120;11.576;2024-03-29T13:14:12;24.40;1.00
490;DHT22;231;48.120;11.576;2024-03-29T13:16:49;23.90;1.00
490;DHT22;231;48.120;11.576;2024-03-29T13:19:17;23.60;1.00
490;DHT22;231;48.120;11.576;2024-03-29T13:21:44;23.40;1.00
490;DHT22;231;48.120;11.576;2024-03-29T13:24:13;23.30;1.00
490;DHT22;231;48.120;11.576;2024-03-29T13:33:20;23.10;1.00
490;DHT22;231;48.120;11.576;2024-03-29T13:35:53;23.10;1.00
490;DHT22;231;48.120;11.576;2024-03-29T13:38:35;23.10;1.00
490;DHT22;231;48.120;11.576;2024-03-29T13:41:10;23.10;1.00
490;DHT22;231;48.120;11.576;2024-03-29T13:43:41;23.10;1.00
490;DHT22;231;48.120;11.576;2024-03-29T13:46:08;23.00;1.00
490;DHT22;231;48.120;11.576;2024-03-29T13:48:36;23.00;1.00
490;DHT22;231;48.120;11.576;2024-03-29T13:51:04;22.90;1.00
490;DHT22;231;48.120;11.576;2024-03-29T13:53:33;22.90;1.00
490;DHT22;231;48.120;11.576;2024-03-29T13:56:00;23.00;1.00
490;DHT22;231;48.120;11.576;2024-03-29T13:58:29;22.90;1.00
490;DHT22;231;48.120;11.576;2024-03-29T14:00:59;22.90;1.00
490;DHT22;231;48.120;11.576;2024-03-29T14:03:26;22.80;1.00
490;DHT22;231;48.120;11.576;2024-03-29T14:05:55;22.90;1.00
490;DHT22;231;48.120;11.576;2024-03-29T14:08:22;22.90;1.00
490;DHT22;231;48.120;11.576;2024-03-29T14:10:50;22.80;1.00
490;DHT22;231;48.120;11.576;2024-03-29T14:13:18;22.80;1.00
490;DHT22;231;48.120;11.576;2024-03-29T14:15:45;22.80;1.00
490;DHT22;231;48.120;11.576;2024-03-29T14:18:12;22.70;1.00
490;DHT22;231;48.120;11.576;2024-03-29T14:20:39;22.80;1.00
490;DHT22;231;48.120;11.576;2024-03-29T14:23:10;22.80;1.00
490;DHT22;231;48.120;11.576;2024-03-29T14:25:40;22.90;1.00
490;DHT22;231;48.120;11.576;2024-03-29T14:28:24;22.80;1.00
490;DHT22;231;48.120;11.576;2024-03-29T14:30:53;22.80;1.00
490;DHT22;231;48.120;11.576;2024-03-29T14:33:22;22.70;1.00
490;DHT22;231;48.120;11.576;2024-03-29T14:35:52;22.70;1.00
490;DHT22;231;48.120;11.576;2024-03-29T14:38:20;22.70;1.00
490;DHT22;231;48.120;11.576;2024-03-29T14:40:47;22.60;1.00
490;DHT22;231;48.120;11.576;2024-03-29T14:43:14;22.50;1.00
490;DHT22;231;48.120;11.576;2024-03-29T14:45:44;22.50;1.00
490;DHT22;231;48.120;11.576;2024-03-29T14:48:10;22.50;1.00
490;DHT22;231;48.120;11.576;2024-03-29T14:50:37;22.60;1.00
490;DHT22;231;48.120;11.576;2024-03-29T14:53:04;22.60;1.00
490;DHT22;231;48.120;11.576;2024-03-29T14:55:32;22.70;1.00
490;DHT22;231;48.120;11.576;2024-03-29T14:58:02;22.70;1.00
490;DHT22;231;48.120;11.576;2024-03-29T15:00:29;22.80;1.00
490;DHT22;231;48.120;11.576;2024-03-29T15:02:56;22.90;1.00
490;DHT22;231;48.120;11.576;2024-03-29T15:05:22;22.90;1.00
490;DHT22;231;48.120;11.576;2024-03-29T15:07:51;22.90;1.00
490;DHT22;231;48.120;11.576;2024-03-29T15:10:18;22.80;1.00
490;DHT22;231;48.120;11.576;2024-03-29T15:12:48;22.80;1.00
490;DHT22;231;48.120;11.576;2024-03-29T15:15:15;22.70;1.00
490;DHT22;231;48.120;11.576;2024-03-29T15:17:44;22.70;1.00
490;DHT22;231;48.120;11.576;2024-03-29T15:20:15;22.70;1.00
490;DHT22;231;48.120;11.576;2024-03-29T15:22:42;22.80;1.00
490;DHT22;231;48.120;11.576;2024-03-29T15:25:11;22.80;1.00
490;DHT22;231;48.120;11.576;2024-03-29T15:27:38;22.70;1.00
490;DHT22;231;48.120;11.576;2024-03-29T15:30:24;22.70;1.00
490;DHT22;231;48.120;11.576;2024-03-29T15:32:53;22.60;1.00
490;DHT22;231;48.120;11.576;2024-03-29T15:35:24;22.50;1.00
490;DHT22;231;48.120;11.576;2024-03-29T15:37:50;22.40;1.00
490;DHT22;231;48.120;11.576;2024-03-29T15:40:20;22.40;1.00
490;DHT22;231;48.120;11.576;2024-03-29T15:42:47;22.30;1.00
490;DHT22;231;48.120;11.576;2024-03-29T15:45:16;22.20;1.00
490;DHT22;231;48.120;11.576;2024-03-29T15:47:44;22.10;1.00
490;DHT22;231;48.120;11.576;2024-03-29T15:50:11;22.00;1.00
490;DHT22;231;48.120;11.576;2024-03-29T15:52:39;21.90;1.00
490;DHT22;231;48.120;11.576;2024-03-29T15:55:06;21.80;1.00
490;DHT22;231;48.120;11.576;2024-03-29T15:57:33;21.70;1.00
490;DHT22;231;48.120;11.576;2024-03-29T16:00:00;21.60;1.00
490;DHT22;231;48.120;11.576;2024-03-29T16:02:26;21.50;1.00
490;DHT22;231;48.120;11.576;2024-03-29T16:04:54;21.40;1.00
490;DHT22;231;48.120;11.576;2024-03-29T16:07:23;21.20;1.00
490;DHT22;231;48.120;11.576;2024-03-29T16:09:50;21.10;1.00
490;DHT22;231;48.120;11.576;2024-03-29T16:12:16;20.90;1.00
490;DHT22;231;48.120;11.576;2024-03-29T16:14:43;20.80;1.00
490;DHT22;231;48.120;11.576;2024-03-29T16:17:13;20.60;1.00
490;DHT22;231;48.120;11.576;2024-03-29T16:19:40;20.50;1.00
490;DHT22;231;48.120;11.576;2024-03-29T16:22:08;20.30;1.00
490;DHT22;231;48.120;11.576;2024-03-29T16:24:35;20.20;1.00
490;DHT22;231;48.120;11.576;2024-03-29T16:27:02;20.00;1.00
490;DHT22;231;48.120;11.576;2024-03-29T16:29:28;19.90;1.00
490;DHT22;231;48.120;11.576;2024-03-29T16:31:55;19.70;1.00
490;DHT22;231;48.120;11.576;2024-03-29T16:34:21;19.60;1.00
490;DHT22;231;48.120;11.576;2024-03-29T16:36:48;19.50;1.00
490;DHT22;231;48.120;11.576;2024-03-29T16:39:15;19.40;1.00
490;DHT22;231;48.120;11.576;2024-03-29T16:41:42;19.30;1.00
490;DHT22;231;48.120;11.576;2024-03-29T16:44:09;19.20;1.00
490;DHT22;231;48.120;11.576;2024-03-29T16:46:36;19.20;1.00
490;DHT22;231;48.120;11.576;2024-03-29T16:49:04;19.10;1.00
490;DHT22;231;48.120;11.576;2024-03-29T16:51:31;19.10;1.00
490;DHT22;231;48.120;11.576;2024-03-29T16:53:57;19.00;1.00
490;DHT22;231;48.120;11.576;2024-03-29T16:56:25;19.00;1.00
490;DHT22;231;48.120;11.576;2024-03-29T16:58:52;19.00;1.00
490;DHT22;231;48.120;11.576;2024-03-29T17:01:19;18.90;1.00
490;DHT22;231;48.120;11.576;2024-03-29T17:03:44;18.90;1.00
490;DHT22;231;48.120;11.576;2024-03-29T17:06:11;18.80;1.00
490;DHT22;231;48.120;11.576;2024-03-29T17:08:37;18.70;1.00
490;DHT22;231;48.120;11.576;2024-03-29T17:11:05;18.60;1.00
490;DHT22;231;48.120;11.576;2024-03-29T17:13:32;18.60;1.00
490;DHT22;231;48.120;11.576;2024-03-29T17:16:00;18.50;1.00
490;DHT22;231;48.120;11.576;2024-03-29T17:18:26;18.40;1.00
490;DHT22;231;48.120;11.576;2024-03-29T17:20:52;18.40;1.00
490;DHT22;231;48.120;11.576;2024-03-29T17:23:18;18.30;1.00
490;DHT22;231;48.120;11.576;2024-03-29T17:25:45;18.20;1.00
490;DHT22;231;48.120;11.576;2024-03-29T17:28:11;18.20;1.00
490;DHT22;231;48.120;11.576;2024-03-29T17:30:39;18.10;1.00
490;DHT22;231;48.120;11.576;2024-03-29T17:33:05;18.10;1.00
490;DHT22;231;48.120;11.576;2024-03-29T17:35:40;18.00;1.00
490;DHT22;231;48.120;11.576;2024-03-29T17:38:09;18.00;1.00
490;DHT22;231;48.120;11.576;2024-03-29T17:40:37;17.90;1.00
490;DHT22;231;48.120;11.576;2024-03-29T17:43:06;17.90;1.00
490;DHT22;231;48.120;11.576;2024-03-29T17:45:33;17.90;1.00
490;DHT22;231;48.120;11.576;2024-03-29T17:48:01;17.90;1.00
490;DHT22;231;48.120;11.576;2024-03-29T17:50:28;17.80;1.00
490;DHT22;231;48.120;11.576;2024-03-29T17:52:53;17.80;1.00
490;DHT22;231;48.120;11.576;2024-03-29T17:55:20;17.70;1.00
490;DHT22;231;48.120;11.576;2024-03-29T17:57:46;17.70;1.00
490;DHT22;231;48.120;11.576;2024-03-29T18:00:14;17.60;1.00
490;DHT22;231;48.120;11.576;2024-03-29T18:02:42;17.60;1.00
490;DHT22;231;48.120;11.576;2024-03-29T18:05:10;17.60;1.00
490;DHT22;231;48.120;11.576;2024-03-29T18:07:36;17.50;1.00
490;DHT22;231;48.120;11.576;2024-03-29T18:10:04;17.50;1.00
490;DHT22;231;48.120;11.576;2024-03-29T18:12:30;17.40;1.00
490;DHT22;231;48.120;11.576;2024-03-29T18:14:57;17.30;1.00
490;DHT22;231;48.120;11.576;2024-03-29T18:17:23;17.30;1.00
490;DHT22;231;48.120;11.576;2024-03-29T18:19:50;17.30;1.00
490;DHT22;231;48.120;11.576;2024-03-29T18:22:17;17.20;1.00
490;DHT22;231;48.120;11.576;2024-03-29T18:24:44;17.20;1.00
490;DHT22;231;48.120;11.576;2024-03-29T18:27:10;17.10;1.00
490;DHT22;231;48.120;11.576;2024-03-29T18:29:36;17.00;1.00
490;DHT22;231;48.120;11.576;2024-03-29T18:32:02;17.00;1.00
490;DHT22;231;48.120;11.576;2024-03-29T18:34:29;16.90;1.00
490;DHT22;231;48.120;11.576;2024-03-29T18:36:55;16.90;1.00
490;DHT22;231;48.120;11.576;2024-03-29T18:39:23;16.80;1.00
490;DHT22;231;48.120;11.576;2024-03-29T18:41:49;16.70;1.00
490;DHT22;231;48.120;11.576;2024-03-29T18:44:17;16.70;1.00
490;DHT22;231;48.120;11.576;2024-03-29T18:46:43;16.60;1.00
490;DHT22;231;48.120;11.576;2024-03-29T18:49:10;16.60;1.00
490;DHT22;231;48.120;11.576;2024-03-29T18:51:36;16.50;1.00
490;DHT22;231;48.120;11.576;2024-03-29T18:54:03;16.50;1.00
490;DHT22;231;48.120;11.576;2024-03-29T18:56:30;16.50;1.00
490;DHT22;231;48.120;11.576;2024-03-29T18:58:58;16.60;1.00
490;DHT22;231;48.120;11.576;2024-03-29T19:01:23;16.50;1.00
490;DHT22;231;48.120;11.576;2024-03-29T19:03:50;16.50;1.00
490;DHT22;231;48.120;11.576;2024-03-29T19:06:16;16.50;1.00
490;DHT22;231;48.120;11.576;2024-03-29T19:08:47;16.50;1.00
490;DHT22;231;48.120;11.576;2024-03-29T19:11:13;16.50;1.00
490;DHT22;231;48.120;11.576;2024-03-29T19:13:46;16.50;1.00
490;DHT22;231;48.120;11.576;2024-03-29T19:16:11;16.50;1.00
490;DHT22;231;48.120;11.576;2024-03-29T19:18:38;16.60;1.00
490;DHT22;231;48.120;11.576;2024-03-29T19:21:04;16.60;1.00
490;DHT22;231;48.120;11.576;2024-03-29T19:23:31;16.60;1.00
490;DHT22;231;48.120;11.576;2024-03-29T19:25:58;16.60;1.00
490;DHT22;231;48.120;11.576;2024-03-29T19:28:26;16.60;1.00
490;DHT22;231;48.120;11.576;2024-03-29T19:30:54;16.60;1.00
490;DHT22;231;48.120;11.576;2024-03-29T19:33:21;16.60;1.00
490;DHT22;231;48.120;11.576;2024-03-29T19:35:47;16.60;1.00
490;DHT22;231;48.120;11.576;2024-03-29T19:38:13;16.60;1.00
490;DHT22;231;48.120;11.576;2024-03-29T19:40:39;16.50;1.00
490;DHT22;231;48.120;11.576;2024-03-29T19:43:06;16.50;1.00
490;DHT22;231;48.120;11.576;2024-03-29T19:45:32;16.50;1.00
490;DHT22;231;48.120;11.576;2024-03-29T19:48:01;16.50;1.00
490;DHT22;231;48.120;11.576;2024-03-29T19:50:27;16.50;1.00
490;DHT22;231;48.120;11.576;2024-03-29T19:52:53;16.40;1.00
490;DHT22;231;48.120;11.576;2024-03-29T19:55:19;16.40;1.00
490;DHT22;231;48.120;11.576;2024-03-29T19:57:46;16.40;1.00
490;DHT22;231;48.120;11.576;2024-03-29T20:00:13;16.30;1.00
490;DHT22;231;48.120;11.576;2024-03-29T20:02:40;16.30;1.00
490;DHT22;231;48.120;11.576;2024-03-29T20:05:09;16.30;1.00
490;DHT22;231;48.120;11.576;2024-03-29T20:07:36;16.20;1.00
490;DHT22;231;48.120;11.576;2024-03-29T20:10:02;16.20;1.00
490;DHT22;231;48.120;11.576;2024-03-29T20:12:29;16.20;1.00
490;DHT22;231;48.120;11.576;2024-03-29T20:14:55;16.10;1.00
490;DHT22;231;48.120;11.576;2024-03-29T20:17:22;16.10;1.00
490;DHT22;231;48.120;11.576;2024-03-29T20:19:48;16.10;1.00
490;DHT22;231;48.120;11.576;2024-03-29T20:22:19;16.10;1.00
490;DHT22;231;48.120;11.576;2024-03-29T20:24:45;16.20;1.00
490;DHT22;231;48.120;11.576;2024-03-29T20:27:13;16.20;1.00
490;DHT22;231;48.120;11.576;2024-03-29T20:29:38;16.20;1.00
490;DHT22;231;48.120;11.576;2024-03-29T20:32:05;16.30;1.00
490;DHT22;231;48.120;11.576;2024-03-29T20:34:34;16.40;1.00
490;DHT22;231;48.120;11.576;2024-03-29T20:37:04;16.40;1.00
490;DHT22;231;48.120;11.576;2024-03-29T20:39:33;16.50;1.00
490;DHT22;231;48.120;11.576;2024-03-29T20:41:59;16.50;1.00
490;DHT22;231;48.120;11.576;2024-03-29T20:44:25;16.60;1.00
490;DHT22;231;48.120;11.576;2024-03-29T20:46:52;16.60;1.00
490;DHT22;231;48.120;11.576;2024-03-29T20:49:18;16.60;1.00
490;DHT22;231;48.120;11.576;2024-03-29T20:51:45;16.70;1.00
490;DHT22;231;48.120;11.576;2024-03-29T20:54:12;16.70;1.00
490;DHT22;231;48.120;11.576;2024-03-29T20:56:40;16.70;1.00
490;DHT22;231;48.120;11.576;2024-03-29T20:59:06;16.70;1.00
490;DHT22;231;48.120;11.576;2024-03-29T21:01:35;16.70;1.00
490;DHT22;231;48.120;11.576;2024-03-29T21:04:20;16.70;1.00
490;DHT22;231;48.120;11.576;2024-03-29T21:07:04;16.60;1.00
490;DHT22;231;48.120;11.576;2024-03-29T21:09:31;16.60;1.00
490;DHT22;231;48.120;11.576;2024-03-29T21:11:59;16.60;1.00
490;DHT22;231;48.120;11.576;2024-03-29T21:14:26;16.60;1.00
490;DHT22;231;48.120;11.576;2024-03-29T21:16:53;16.80;1.00
490;DHT22;231;48.120;11.576;2024-03-29T21:19:21;16.50;1.00
490;DHT22;231;48.120;11.576;2024-03-29T21:21:46;16.50;1.00
490;DHT22;231;48.120;11.576;2024-03-29T21:24:13;16.40;1.00
490;DHT22;231;48.120;11.576;2024-03-29T21:26:39;16.50;1.00
490;DHT22;231;48.120;11.576;2024-03-29T21:29:07;16.50;1.00